createdAt,value
2023-01-29T00:01:01.782Z,98639.25
2023-01-29T00:06:03.687Z,98658.19
2023-01-29T00:11:04.930Z,98648.66
2023-01-29T00:16:06.300Z,98651.13
2023-01-29T00:21:07.570Z,98662.56
2023-01-29T00:26:08.839Z,98649.78
2023-01-29T00:31:10.238Z,98663.25
2023-01-29T00:36:11.557Z,98672.53
2023-01-29T00:41:31.667Z,98661.91
2023-01-29T00:46:32.913Z,98660.78
2023-01-29T00:51:34.220Z,98649.88
2023-01-29T00:56:35.446Z,98657.72
2023-01-29T01:01:55.586Z,98642.88
2023-01-29T01:06:56.876Z,98639.47
2023-01-29T01:11:58.192Z,98638.81
2023-01-29T01:16:59.605Z,98644.72
2023-01-29T01:22:00.842Z,98633.22
2023-01-29T01:27:02.049Z,98638.13
2023-01-29T01:32:03.360Z,98647.13
2023-01-29T01:37:05.374Z,98633.13
2023-01-29T01:42:06.585Z,98622.28
2023-01-29T01:47:07.793Z,98613.94
2023-01-29T01:52:08.992Z,98615.75
2023-01-29T01:57:16.135Z,98609.94
2023-01-29T02:02:36.184Z,98605.81
2023-01-29T02:07:55.953Z,98606.31
2023-01-29T02:12:57.154Z,98606.53
2023-01-29T02:17:58.350Z,98614.72
2023-01-29T02:23:02.646Z,98621.88
2023-01-29T02:28:04.879Z,98626.50
2023-01-29T02:33:09.296Z,98628.28
2023-01-29T02:38:10.636Z,98620.91
2023-01-29T02:43:11.909Z,98634.69
2023-01-29T02:48:13.177Z,98624.28
2023-01-29T02:53:14.422Z,98623.63
2023-01-29T02:58:15.643Z,98624.44
2023-01-29T03:03:16.876Z,98619.28
2023-01-29T03:08:18.078Z,98617.56
2023-01-29T03:13:19.485Z,98617.91
2023-01-29T03:18:20.751Z,98608.31
2023-01-29T03:23:40.943Z,98592.03
2023-01-29T03:29:00.986Z,98604.88
2023-01-29T03:34:03.879Z,98608.56
2023-01-29T03:39:05.344Z,98607.75
2023-01-29T03:44:06.594Z,98601.41
2023-01-29T03:49:08.379Z,98613.31
2023-01-29T03:54:09.853Z,98615.09
2023-01-29T03:59:11.974Z,98621.13
2023-01-29T04:04:13.282Z,98628.16
2023-01-29T04:09:14.557Z,98624.28
2023-01-29T04:14:15.802Z,98619.25
2023-01-29T04:19:17.095Z,98610.06
2023-01-29T04:24:18.390Z,98598.94
2023-01-29T04:29:19.667Z,98615.53
2023-01-29T04:34:20.924Z,98627.19
2023-01-29T04:39:22.323Z,98620.88
2023-01-29T04:44:23.867Z,98619.97
2023-01-29T04:49:25.140Z,98627.13
2023-01-29T04:54:26.445Z,98620.88
2023-01-29T04:59:27.698Z,98624.31
2023-01-29T05:04:28.944Z,98626.75
2023-01-29T05:09:30.162Z,98626.66
2023-01-29T05:14:31.367Z,98618.25
2023-01-29T05:19:32.591Z,98613.31
2023-01-29T05:24:33.834Z,98604.41
2023-01-29T05:29:35.114Z,98607.91
2023-01-29T05:34:36.355Z,98614.19
2023-01-29T05:39:37.571Z,98599.69
2023-01-29T05:44:38.804Z,98599.66
2023-01-29T05:49:40.045Z,98607.66
2023-01-29T05:54:41.363Z,98626.91
2023-01-29T05:59:42.578Z,98624.66
2023-01-29T06:04:43.838Z,98628.50
2023-01-29T06:09:45.104Z,98622.28
2023-01-29T06:14:46.389Z,98606.38
2023-01-29T06:19:47.614Z,98583.13
2023-01-29T06:24:48.912Z,98589.88
2023-01-29T06:29:50.333Z,98588.53
2023-01-29T06:34:53.135Z,98573.97
2023-01-29T06:39:54.381Z,98566.88
2023-01-29T06:44:55.693Z,98569.44
2023-01-29T06:49:56.947Z,98581.75
2023-01-29T06:54:58.167Z,98592.63
2023-01-29T06:59:59.642Z,98596.28
2023-01-29T07:05:00.903Z,98602.16
2023-01-29T07:10:02.154Z,98613.13
2023-01-29T07:15:03.899Z,98623.91
2023-01-29T07:20:05.984Z,98622.03
2023-01-29T07:25:07.247Z,98639.38
2023-01-29T07:30:08.479Z,98629.13
2023-01-29T07:35:09.739Z,98637.91
2023-01-29T07:40:11.363Z,98642.47
2023-01-29T07:45:12.630Z,98633.19
2023-01-29T07:50:14.041Z,98633.84
2023-01-29T07:55:15.365Z,98635.13
2023-01-29T08:00:16.871Z,98631.41
2023-01-29T08:05:18.271Z,98628.03
2023-01-29T08:10:19.756Z,98635.31
2023-01-29T08:15:21.222Z,98656.28
2023-01-29T08:20:22.432Z,98676.53
2023-01-29T08:25:23.946Z,98670.25
2023-01-29T08:30:25.375Z,98656.53
2023-01-29T08:35:26.680Z,98670.56
2023-01-29T08:40:28.093Z,98682.56
2023-01-29T08:45:30.084Z,98688.41
2023-01-29T08:50:32.443Z,98687.38
2023-01-29T08:55:33.763Z,98686.88
2023-01-29T09:00:34.976Z,98699.31
2023-01-29T09:05:36.205Z,98703.31
2023-01-29T09:10:37.537Z,98707.72
2023-01-29T09:15:38.771Z,98711.28
2023-01-29T09:20:40.092Z,98709.84
2023-01-29T09:25:41.344Z,98694.13
2023-01-29T09:30:42.702Z,98696.59
2023-01-29T09:35:44.232Z,98695.28
2023-01-29T09:40:45.483Z,98705.16
2023-01-29T09:45:46.797Z,98703.31
2023-01-29T09:50:48.124Z,98694.97
2023-01-29T09:55:49.741Z,98685.97
2023-01-29T10:00:50.975Z,98674.38
2023-01-29T10:05:52.212Z,98663.78
2023-01-29T10:10:53.450Z,98662.75
2023-01-29T10:15:54.725Z,98647.22
2023-01-29T10:20:55.999Z,98641.25
2023-01-29T10:25:57.298Z,98649.16
2023-01-29T10:30:58.735Z,98635.22
2023-01-29T10:35:59.996Z,98635.50
2023-01-29T10:41:01.189Z,98639.50
2023-01-29T10:46:02.412Z,98630.03
2023-01-29T10:51:03.706Z,98620.44
2023-01-29T10:56:14.163Z,98621.44
2023-01-29T11:01:22.431Z,98600.66
2023-01-29T11:06:24.024Z,98577.94
2023-01-29T11:11:25.308Z,98584.41
2023-01-29T11:16:26.607Z,98568.56
2023-01-29T11:21:27.884Z,98569.41
2023-01-29T11:26:29.169Z,98557.84
2023-01-29T11:31:30.549Z,98553.81
2023-01-29T11:36:35.020Z,98555.31
2023-01-29T11:41:36.389Z,98551.03
2023-01-29T11:46:37.804Z,98544.66
2023-01-29T11:51:39.139Z,98524.50
2023-01-29T11:56:40.463Z,98520.69
2023-01-29T12:01:42.288Z,98508.75
2023-01-29T12:06:43.578Z,98497.19
2023-01-29T12:11:45.039Z,98476.25
2023-01-29T12:16:46.310Z,98476.81
2023-01-29T12:21:47.986Z,98465.69
2023-01-29T12:26:49.201Z,98465.84
2023-01-29T12:31:50.508Z,98461.69
2023-01-29T12:36:54.847Z,98457.13
2023-01-29T12:41:56.103Z,98453.16
2023-01-29T12:46:57.429Z,98444.66
2023-01-29T12:51:59.191Z,98431.63
2023-01-29T12:57:00.502Z,98429.91
2023-01-29T13:02:01.722Z,98423.00
2023-01-29T13:07:02.987Z,98414.38
2023-01-29T13:12:04.270Z,98416.41
2023-01-29T13:17:05.603Z,98427.75
2023-01-29T13:22:06.934Z,98417.50
2023-01-29T13:27:08.303Z,98402.16
2023-01-29T13:32:10.399Z,98392.41
2023-01-29T13:37:11.688Z,98387.44
2023-01-29T13:42:13.024Z,98400.28
2023-01-29T13:47:14.294Z,98409.88
2023-01-29T13:52:15.591Z,98415.97
2023-01-29T13:57:17.041Z,98402.19
2023-01-29T14:02:18.376Z,98415.56
2023-01-29T14:07:19.652Z,98405.34
2023-01-29T14:12:20.902Z,98389.19
2023-01-29T14:17:22.947Z,98395.25
2023-01-29T14:22:24.263Z,98392.66
2023-01-29T14:27:25.760Z,98385.97
2023-01-29T14:32:27.034Z,98379.75
2023-01-29T14:37:28.282Z,98389.28
2023-01-29T14:42:29.500Z,98380.63
2023-01-29T14:47:30.706Z,98380.97
2023-01-29T14:52:31.911Z,98374.75
2023-01-29T14:57:33.221Z,98367.94
2023-01-29T15:02:37.205Z,98365.25
2023-01-29T15:07:38.578Z,98366.19
2023-01-29T15:12:39.992Z,98367.84
2023-01-29T15:17:41.273Z,98360.81
2023-01-29T15:22:42.519Z,98362.63
2023-01-29T15:27:43.888Z,98366.75
2023-01-29T15:32:45.188Z,98359.88
2023-01-29T15:37:46.446Z,98363.94
2023-01-29T15:42:48.534Z,98374.22
2023-01-29T15:47:49.852Z,98367.63
2023-01-29T15:52:51.091Z,98373.72
2023-01-29T15:57:52.412Z,98372.22
2023-01-29T16:02:53.734Z,98372.03
2023-01-29T16:07:55.487Z,98378.88
2023-01-29T16:12:56.837Z,98381.56
2023-01-29T16:17:58.119Z,98378.16
2023-01-29T16:22:59.551Z,98363.69
2023-01-29T16:28:01.088Z,98361.84
2023-01-29T16:33:02.339Z,98359.16
2023-01-29T16:38:03.724Z,98360.03
2023-01-29T16:43:04.952Z,98359.25
2023-01-29T16:48:06.257Z,98371.34
2023-01-29T16:53:07.497Z,98364.56
2023-01-29T16:58:08.751Z,98370.53
2023-01-29T17:03:10.028Z,98376.41
2023-01-29T17:08:11.264Z,98379.84
2023-01-29T17:13:12.496Z,98375.28
2023-01-29T17:18:13.736Z,98376.16
2023-01-29T17:23:15.082Z,98380.69
2023-01-29T17:28:16.451Z,98380.63
2023-01-29T17:33:17.862Z,98390.94
2023-01-29T17:38:25.882Z,98398.28
2023-01-29T17:43:27.498Z,98400.44
2023-01-29T17:48:28.805Z,98395.31
2023-01-29T17:53:43.447Z,98389.47
2023-01-29T17:58:45.821Z,98387.75
2023-01-29T18:03:47.069Z,98380.03
2023-01-29T18:08:48.348Z,98378.31
2023-01-29T18:13:49.597Z,98386.06
2023-01-29T18:18:50.853Z,98372.41
2023-01-29T18:23:52.136Z,98359.63
2023-01-29T18:28:53.374Z,98357.03
2023-01-29T18:33:54.642Z,98349.34
2023-01-29T18:38:55.882Z,98348.47
2023-01-29T18:43:57.094Z,98349.31
2023-01-29T18:48:58.369Z,98348.47
2023-01-29T18:53:59.687Z,98352.78
2023-01-29T18:59:00.956Z,98345.88
2023-01-29T19:04:02.256Z,98350.19
2023-01-29T19:09:03.930Z,98349.19
2023-01-29T19:14:05.160Z,98347.47
2023-01-29T19:19:06.495Z,98349.25
2023-01-29T19:24:10.074Z,98351.78
2023-01-29T19:29:11.453Z,98356.00
2023-01-29T19:34:12.694Z,98355.09
2023-01-29T19:39:14.837Z,98356.03
2023-01-29T19:44:16.085Z,98358.50
2023-01-29T19:49:17.307Z,98363.66
2023-01-29T19:54:19.779Z,98369.69
2023-01-29T19:59:20.989Z,98365.41
2023-01-29T20:04:22.340Z,98377.28
2023-01-29T20:09:23.557Z,98375.63
2023-01-29T20:14:24.876Z,98374.78
2023-01-29T20:19:26.092Z,98367.19
2023-01-29T20:24:29.017Z,98361.16
2023-01-29T20:29:30.343Z,98352.66
2023-01-29T20:34:31.569Z,98361.84
2023-01-29T20:39:32.857Z,98352.53
2023-01-29T20:44:34.321Z,98344.16
2023-01-29T20:49:35.625Z,98333.84
2023-01-29T20:54:37.196Z,98327.91
2023-01-29T20:59:38.563Z,98329.63
2023-01-29T21:04:39.849Z,98319.41
2023-01-29T21:09:41.073Z,98320.16
2023-01-29T21:14:42.371Z,98307.25
2023-01-29T21:19:44.115Z,98292.84
2023-01-29T21:30:02.391Z,98283.13
2023-01-29T21:35:03.630Z,98283.75
2023-01-29T21:40:04.869Z,98281.25
2023-01-29T21:45:06.090Z,98300.00
2023-01-29T21:50:07.329Z,98307.59
2023-01-29T21:55:08.586Z,98319.34
2023-01-29T22:00:09.802Z,98334.75
2023-01-29T22:05:19.476Z,98332.53
2023-01-29T22:10:21.621Z,98341.63
2023-01-29T22:15:23.976Z,98342.69
2023-01-29T22:20:30.136Z,98342.69
2023-01-29T22:25:32.232Z,98344.63
2023-01-29T22:30:33.646Z,98334.16
2023-01-29T22:35:35.040Z,98327.41
2023-01-29T22:40:41.275Z,98326.50
2023-01-29T22:45:42.513Z,98325.78
2023-01-29T22:50:52.802Z,98306.13
2023-01-29T22:55:54.442Z,98299.34
2023-01-29T23:00:55.659Z,98288.25
2023-01-29T23:05:56.883Z,98273.84
2023-01-29T23:11:13.818Z,98263.53
2023-01-29T23:16:15.665Z,98259.19
2023-01-29T23:21:17.198Z,98252.16
2023-01-29T23:26:37.263Z,98243.69
2023-01-29T23:31:38.615Z,98244.50
2023-01-29T23:36:39.883Z,98240.13
2023-01-29T23:41:41.129Z,98230.81
2023-01-29T23:46:42.444Z,98211.94
2023-01-29T23:51:44.429Z,98194.31
2023-01-29T23:56:45.709Z,98188.22
